Time;durP1;ratioP1;P1;durP2;ratioP2;P2;SDS_P1;SDS_P2;PMS_P1;PMS_P2;Temp;Humidity;BMP_temperature;BMP_pressure;BME280_temperature;BME280_humidity;BME280_pressure;Samples;Min_cycle;Max_cycle;Signal;HPM_P1;HPM_P2
2021/04/23 00:01:10;;;;;;;3.22;1.40;;;15.90;51.90;;;;;;4975071;28;20201;-61
2021/04/23 00:03:43;;;;;;;4.47;1.08;;;16.20;52.00;;;;;;4975079;28;20489;-61
2021/04/23 00:06:15;;;;;;;3.33;1.33;;;16.10;52.00;;;;;;4975029;28;20105;-61
2021/04/23 00:08:44;;;;;;;1.58;0.98;;;16.10;52.00;;;;;;4992527;28;20484;-61
2021/04/23 00:11:10;;;;;;;1.92;1.27;;;16.10;52.00;;;;;;4992342;28;20030;-61
2021/04/23 00:13:37;;;;;;;1.85;1.15;;;16.10;52.00;;;;;;4992288;28;20076;-61
2021/04/23 00:16:03;;;;;;;2.35;1.02;;;16.10;52.10;;;;;;4992507;28;20018;-61
2021/04/23 00:18:29;;;;;;;2.75;1.30;;;16.10;52.10;;;;;;4992317;28;20092;-62
2021/04/23 00:20:54;;;;;;;1.45;0.90;;;16.10;52.10;;;;;;4992477;28;20030;-61
2021/04/23 00:23:20;;;;;;;2.75;1.50;;;15.80;51.90;;;;;;4974428;28;20096;-61
2021/04/23 00:25:46;;;;;;;4.22;0.90;;;16.10;52.10;;;;;;4975074;28;20025;-61
2021/04/23 00:28:14;;;;;;;2.38;1.50;;;16.70;52.40;;;;;;4992517;28;20026;-62
2021/04/23 00:30:45;;;;;;;1.77;1.00;;;16.00;52.10;;;;;;4993177;28;20400;-61
2021/04/23 00:33:11;;;;;;;2.58;1.30;;;16.00;52.10;;;;;;4996078;28;20030;-61
2021/04/23 00:35:40;;;;;;;2.78;1.20;;;16.00;52.20;;;;;;4978682;28;20060;-61
2021/04/23 00:38:09;;;;;;;3.22;1.33;;;16.00;52.20;;;;;;4996300;28;20158;-61
2021/04/23 00:40:44;;;;;;;2.58;1.30;;;16.00;52.20;;;;;;4995904;28;20038;-61
2021/04/23 00:43:10;;;;;;;4.57;1.52;;;16.00;52.20;;;;;;4996230;28;20126;-61
2021/04/23 00:45:36;;;;;;;5.15;1.60;;;16.00;52.20;;;;;;4996178;28;20469;-61
2021/04/23 00:48:05;;;;;;;2.13;1.10;;;16.00;52.20;;;;;;4995314;28;20029;-61
2021/04/23 00:50:41;;;;;;;2.10;1.13;;;16.00;52.20;;;;;;4978314;28;20113;-61
2021/04/23 00:53:14;;;;;;;4.47;1.35;;;16.00;52.30;;;;;;4996157;28;20061;-61
2021/04/23 00:55:41;;;;;;;4.43;1.80;;;16.00;52.30;;;;;;4978256;28;20117;-61
2021/04/23 00:58:12;;;;;;;3.83;1.30;;;15.80;75.60;;;;;;4995369;28;20109;-61
2021/04/23 01:00:38;;;;;;;2.75;1.23;;;15.80;52.10;;;;;;4962862;28;20050;-61
2021/04/23 01:03:04;;;;;;;3.70;1.27;;;15.90;52.20;;;;;;4977968;28;20054;-61
2021/04/23 01:05:34;;;;;;;2.33;1.05;;;15.90;52.20;;;;;;4995862;28;20023;-61
2021/04/23 01:08:00;;;;;;;2.58;1.50;;;15.90;52.30;;;;;;4995338;28;20030;-61
2021/04/23 01:10:27;;;;;;;3.72;1.52;;;16.40;52.50;;;;;;4995658;28;20484;-61
2021/04/23 01:12:53;;;;;;;5.15;1.67;;;15.90;52.30;;;;;;4995721;28;20025;-61
2021/04/23 01:15:19;;;;;;;3.10;1.48;;;15.80;52.20;;;;;;4995507;28;20095;-61
2021/04/23 01:17:45;;;;;;;2.53;1.13;;;15.90;52.30;;;;;;4977818;28;20026;-61
2021/04/23 01:20:11;;;;;;;4.00;1.63;;;16.50;52.70;;;;;;4995411;28;20046;-61
2021/04/23 01:22:38;;;;;;;3.05;1.52;;;15.80;52.30;;;;;;4994660;28;20663;-61
2021/04/23 01:25:04;;;;;;;2.03;1.60;;;15.90;52.40;;;;;;4995170;28;20095;-61
2021/04/23 01:27:30;;;;;;;3.25;1.45;;;15.80;52.30;;;;;;4994832;28;20034;-61
2021/04/23 01:29:55;;;;;;;2.97;1.55;;;16.00;52.50;;;;;;4977643;28;20022;-61
2021/04/23 01:32:21;;;;;;;4.40;1.75;;;15.80;52.30;;;;;;4995387;28;20022;-61
2021/04/23 01:34:47;;;;;;;4.10;1.90;;;15.80;52.40;;;;;;4995229;28;20033;-61
2021/04/23 01:37:13;;;;;;;2.30;1.58;;;15.70;52.30;;;;;;4994593;28;20437;-61
2021/04/23 01:39:41;;;;;;;2.58;1.58;;;15.80;52.40;;;;;;4995080;28;20022;-61
2021/04/23 01:42:10;;;;;;;3.35;1.95;;;15.90;74.80;;;;;;4994574;28;20465;-61
2021/04/23 01:44:36;;;;;;;2.35;1.60;;;15.80;52.40;;;;;;4994949;28;20068;-61
2021/04/23 01:47:04;;;;;;;3.50;1.50;;;15.80;52.50;;;;;;4994638;28;20052;-61
2021/04/23 01:49:31;;;;;;;3.08;1.67;;;16.10;52.60;;;;;;4961097;28;20022;-61
2021/04/23 01:51:59;;;;;;;4.22;1.45;;;15.70;52.40;;;;;;4994785;28;20113;-61
2021/04/23 01:54:26;;;;;;;3.47;2.10;;;15.70;51.90;;;;;;4994986;28;20046;-61
2021/04/23 01:56:52;;;;;;;3.92;1.70;;;15.70;52.40;;;;;;4977121;28;20481;-61
2021/04/23 01:59:18;;;;;;;3.55;1.77;;;15.70;52.50;;;;;;4994379;28;20033;-61
2021/04/23 02:01:44;;;;;;;3.63;1.80;;;15.70;52.50;;;;;;4994428;28;20493;-62
2021/04/23 02:04:13;;;;;;;4.38;1.63;;;15.70;52.50;;;;;;4994619;28;20030;-61
2021/04/23 02:06:40;;;;;;;3.95;1.52;;;15.70;52.50;;;;;;4994435;28;20469;-61
2021/04/23 02:09:07;;;;;;;4.05;1.90;;;15.70;52.50;;;;;;4994591;28;20102;-61
2021/04/23 02:11:33;;;;;;;2.65;1.63;;;15.70;52.60;;;;;;4994708;28;20022;-61
2021/04/23 02:14:01;;;;;;;2.95;1.60;;;15.70;52.50;;;;;;4994731;28;20037;-61
2021/04/23 02:16:28;;;;;;;2.65;1.55;;;15.70;52.50;;;;;;4976916;28;20026;-61
2021/04/23 02:18:54;;;;;;;3.40;1.75;;;15.70;52.60;;;;;;4994128;28;20049;-61
2021/04/23 02:21:20;;;;;;;3.28;1.60;;;15.60;52.50;;;;;;4994307;28;20425;-61
2021/04/23 02:23:48;;;;;;;3.40;1.70;;;15.40;53.10;;;;;;4994182;28;20488;-61
2021/04/23 02:26:15;;;;;;;2.90;1.70;;;15.60;52.60;;;;;;4994205;28;20030;-61
2021/04/23 02:28:42;;;;;;;2.53;1.55;;;15.40;52.50;;;;;;4994171;28;20030;-61
2021/04/23 02:31:18;;;;;;;3.33;1.83;;;15.60;52.60;;;;;;4993928;28;20057;-61
2021/04/23 02:33:46;;;;;;;2.80;1.63;;;15.60;52.60;;;;;;4994150;28;20576;-61
2021/04/23 02:36:14;;;;;;;3.17;1.35;;;15.60;52.60;;;;;;4994043;28;20101;-61
2021/04/23 02:38:42;;;;;;;3.78;1.38;;;15.60;52.70;;;;;;4993598;28;20031;-60
2021/04/23 02:41:08;;;;;;;3.38;1.80;;;15.60;52.70;;;;;;4994013;28;20054;-61
2021/04/23 02:43:37;;;;;;;2.55;1.80;;;15.60;52.70;;;;;;4993977;28;20439;-61
2021/04/23 02:46:04;;;;;;;3.95;1.70;;;15.60;52.70;;;;;;4994153;28;20018;-61
2021/04/23 02:48:31;;;;;;;4.78;1.38;;;15.50;52.60;;;;;;4976207;28;20404;-61
2021/04/23 02:51:10;;;;;;;6.03;1.70;;;15.50;52.60;;;;;;4976390;28;20034;-61
2021/04/23 02:53:36;;;;;;;3.28;1.70;;;15.50;52.60;;;;;;4993692;28;20030;-61
2021/04/23 02:56:02;;;;;;;3.05;1.50;;;15.50;52.70;;;;;;4993387;28;20161;-61
2021/04/23 02:58:29;;;;;;;4.03;1.58;;;15.50;75.30;;;;;;4993142;28;20026;-61
2021/04/23 03:01:00;;;;;;;4.38;1.70;;;15.50;52.70;;;;;;4976043;28;20026;-61
2021/04/23 03:03:27;;;;;;;5.07;1.88;;;15.50;52.70;;;;;;4975688;28;20085;-61
2021/04/23 03:05:52;;;;;;;2.50;1.58;;;15.50;52.70;;;;;;4976314;28;20032;-61
2021/04/23 03:08:19;;;;;;;3.25;1.50;;;15.50;52.80;;;;;;4993283;28;20101;-60
2021/04/23 03:10:54;;;;;;;3.22;1.88;;;15.50;52.70;;;;;;4993312;28;20077;-61
2021/04/23 03:13:25;;;;;;;2.35;1.33;;;15.50;52.80;;;;;;4993210;28;20030;-60
2021/04/23 03:15:53;;;;;;;7.40;2.17;;;15.50;52.70;;;;;;4993406;28;20026;-61
2021/04/23 03:18:21;;;;;;;2.53;1.42;;;15.40;52.70;;;;;;4993442;28;20022;-61
2021/04/23 03:20:49;;;;;;;2.58;1.60;;;15.50;52.80;;;;;;4993330;28;20358;-60
2021/04/23 03:23:15;;;;;;;5.18;1.60;;;15.40;52.80;;;;;;4992749;28;20459;-61
2021/04/23 03:25:41;;;;;;;3.50;1.80;;;15.40;52.80;;;;;;4993179;28;20049;-61
2021/04/23 03:28:07;;;;;;;2.75;1.40;;;15.40;52.80;;;;;;4993251;28;20053;-61
2021/04/23 03:30:36;;;;;;;4.70;1.85;;;15.40;52.80;;;;;;4993254;28;20022;-61
2021/04/23 03:33:02;;;;;;;4.35;1.70;;;15.40;52.80;;;;;;4993218;28;20048;-61
2021/04/23 03:35:28;;;;;;;2.10;1.42;;;15.40;52.80;;;;;;4975576;28;20014;-61
2021/04/23 03:37:56;;;;;;;1.65;1.25;;;15.40;52.90;;;;;;4993299;28;20099;-61
2021/04/23 03:40:24;;;;;;;3.20;1.73;;;15.40;52.90;;;;;;4992735;28;20026;-61
2021/04/23 03:42:50;;;;;;;4.38;1.75;;;15.40;52.90;;;;;;4992595;28;20031;-61
2021/04/23 03:45:20;;;;;;;2.58;1.45;;;15.50;52.90;;;;;;4992806;28;20113;-61
2021/04/23 03:47:46;;;;;;;2.42;1.48;;;15.40;52.90;;;;;;4975747;28;20033;-61
2021/04/23 03:50:14;;;;;;;2.95;1.38;;;15.40;52.90;;;;;;4992711;28;20041;-62
2021/04/23 03:52:40;;;;;;;3.53;1.48;;;15.30;52.90;;;;;;4974997;28;20029;-61
2021/04/23 03:55:08;;;;;;;3.58;1.50;;;15.30;52.80;;;;;;4993003;28;20161;-60
2021/04/23 03:57:35;;;;;;;3.35;1.75;;;15.30;52.90;;;;;;4975053;28;20113;-61
2021/04/23 04:00:07;;;;;;;2.75;1.55;;;15.70;53.10;;;;;;4992724;28;20019;-60
2021/04/23 04:02:33;;;;;;;2.42;1.58;;;;;;;;;;4974778;28;20130;-60
2021/04/23 04:04:59;;;;;;;3.00;1.48;;;15.30;52.40;;;;;;4992681;28;20517;-61
2021/04/23 04:07:25;;;;;;;3.88;1.40;;;15.10;52.80;;;;;;4981278;28;20026;-59
2021/04/23 04:09:50;;;;;;;3.78;1.63;;;15.30;53.00;;;;;;4998879;28;20113;-60
2021/04/23 04:12:16;;;;;;;3.88;1.70;;;15.30;52.90;;;;;;4998811;28;20081;-61
2021/04/23 04:14:41;;;;;;;3.60;1.83;;;15.30;52.90;;;;;;4998972;28;20065;-61
2021/04/23 04:17:07;;;;;;;3.53;1.67;;;15.30;52.90;;;;;;4999021;28;20037;-61
2021/04/23 04:19:32;;;;;;;3.58;1.60;;;15.20;52.90;;;;;;4998959;28;20509;-61
2021/04/23 04:21:59;;;;;;;3.65;1.65;;;15.20;52.90;;;;;;4998503;28;20477;-61
2021/04/23 04:24:24;;;;;;;3.55;1.55;;;15.20;52.90;;;;;;4998834;28;20073;-61
2021/04/23 04:26:50;;;;;;;2.60;1.50;;;15.20;52.90;;;;;;4999235;28;20026;-61
2021/04/23 04:29:18;;;;;;;3.85;1.70;;;15.20;52.90;;;;;;4998776;28;20495;-61
2021/04/23 04:31:44;;;;;;;3.53;1.25;;;15.20;52.90;;;;;;4981182;28;20025;-61
2021/04/23 04:34:10;;;;;;;2.33;1.50;;;15.00;52.80;;;;;;4998795;28;20033;-61
2021/04/23 04:36:36;;;;;;;2.38;1.45;;;15.20;52.90;;;;;;4998844;28;20027;-61
2021/04/23 04:39:02;;;;;;;4.32;1.85;;;15.20;52.90;;;;;;4998865;28;20014;-61
2021/04/23 04:41:28;;;;;;;4.38;1.55;;;15.20;52.90;;;;;;4998716;28;20038;-61
2021/04/23 04:43:54;;;;;;;1.73;1.30;;;15.20;53.00;;;;;;4999069;28;20488;-61
2021/04/23 04:46:20;;;;;;;4.78;1.48;;;14.90;52.90;;;;;;4998983;28;20027;-61
2021/04/23 04:48:46;;;;;;;3.17;1.73;;;15.20;53.00;;;;;;4965031;28;20532;-61
2021/04/23 04:51:11;;;;;;;4.75;1.33;;;15.10;53.00;;;;;;4998670;28;20149;-61
2021/04/23 04:53:37;;;;;;;3.15;1.45;;;15.20;53.00;;;;;;4998535;28;20389;-61
2021/04/23 04:56:03;;;;;;;2.72;1.17;;;15.20;53.10;;;;;;4998917;28;20018;-61
2021/04/23 04:58:32;;;;;;;2.28;1.35;;;15.10;53.00;;;;;;4998358;28;20025;-61
2021/04/23 05:00:59;;;;;;;5.03;1.73;;;15.10;53.00;;;;;;4981117;28;20105;-61
2021/04/23 05:03:25;;;;;;;3.17;1.58;;;15.50;53.20;;;;;;4998238;28;20054;-61
2021/04/23 05:05:51;;;;;;;3.17;1.25;;;14.80;52.90;;;;;;4998695;28;20014;-61
2021/04/23 05:08:17;;;;;;;2.88;1.50;;;15.10;53.00;;;;;;4998495;28;20061;-61
2021/04/23 05:10:43;;;;;;;2.05;1.30;;;15.10;53.00;;;;;;4998192;28;20022;-61
2021/04/23 05:13:08;;;;;;;2.13;1.10;;;15.70;53.30;;;;;;4998358;28;20481;-62
2021/04/23 05:15:34;;;;;;;1.15;0.93;;;15.10;53.00;;;;;;4998554;28;20030;-58
2021/04/23 05:18:00;;;;;;;5.03;1.65;;;15.10;53.30;;;;;;4995435;28;20066;-58
2021/04/23 05:20:26;;;;;;;8.57;1.40;;;15.30;53.50;;;;;;4977639;28;20026;-58
2021/04/23 05:22:53;;;;;;;5.03;1.20;;;15.60;53.60;;;;;;4995153;28;20057;-58
2021/04/23 05:25:22;;;;;;;3.72;1.40;;;15.70;53.50;;;;;;4995206;28;20053;-59
2021/04/23 05:27:48;;;;;;;7.13;1.30;;;15.20;53.10;;;;;;4995109;28;20030;-58
2021/04/23 05:30:17;;;;;;;6.00;1.60;;;15.10;53.00;;;;;;4994529;28;20033;-57
2021/04/23 05:32:44;;;;;;;5.25;1.65;;;15.20;53.00;;;;;;4977520;28;20461;-57
2021/04/23 05:35:11;;;;;;;3.83;1.30;;;15.20;53.00;;;;;;4995280;28;20029;-58
2021/04/23 05:37:37;;;;;;;3.95;1.45;;;15.20;52.90;;;;;;4977369;28;20033;-57
2021/04/23 05:40:06;;;;;;;2.40;1.35;;;15.20;52.90;;;;;;4994462;28;20370;-58
2021/04/23 05:42:32;;;;;;;2.10;1.20;;;15.20;52.90;;;;;;4977349;28;20042;-58
2021/04/23 05:44:58;;;;;;;3.50;1.35;;;15.20;53.00;;;;;;4994880;28;20072;-56
2021/04/23 05:47:24;;;;;;;4.60;1.60;;;15.20;53.00;;;;;;4977260;28;20026;-58
2021/04/23 05:49:50;;;;;;;3.15;1.45;;;15.70;53.40;;;;;;4976771;28;20037;-61
2021/04/23 05:52:16;;;;;;;4.15;1.52;;;15.20;52.80;;;;;;4977133;28;20022;-60
2021/04/23 05:54:41;;;;;;;6.28;1.40;;;15.20;52.90;;;;;;4994730;28;20026;-59
2021/04/23 05:57:07;;;;;;;3.97;1.67;;;15.20;53.10;;;;;;4994611;28;20037;-60
2021/04/23 05:59:33;;;;;;;6.18;1.33;;;;;;;;;;4976386;28;20057;-60
2021/04/23 06:02:00;;;;;;;3.85;1.50;;;15.20;52.60;;;;;;4994362;28;20050;-59
2021/04/23 06:04:26;;;;;;;2.15;1.23;;;15.10;77.80;;;;;;4994484;28;20030;-57
2021/04/23 06:06:52;;;;;;;2.80;1.10;;;15.30;53.50;;;;;;4994680;28;20030;-60
2021/04/23 06:09:18;;;;;;;4.00;1.30;;;15.10;53.60;;;;;;4976916;28;20389;-59
2021/04/23 06:11:43;;;;;;;3.72;1.63;;;15.10;53.80;;;;;;4994533;28;20018;-60
2021/04/23 06:14:09;;;;;;;2.60;1.48;;;15.00;53.90;;;;;;4994388;28;20477;-60
2021/04/23 06:16:35;;;;;;;4.68;1.27;;;15.20;54.90;;;;;;4994465;28;20022;-60
2021/04/23 06:19:03;;;;;;;5.95;1.40;;;15.30;54.90;;;;;;4976487;28;20125;-58
2021/04/23 06:21:28;;;;;;;6.32;1.45;;;15.30;54.80;;;;;;4994279;28;20045;-59
2021/04/23 06:23:54;;;;;;;1.27;1.10;;;15.50;54.90;;;;;;4994155;28;20022;-58
2021/04/23 06:26:20;;;;;;;4.45;1.45;;;15.30;55.30;;;;;;4994253;28;20480;-60
2021/04/23 06:28:46;;;;;;;3.45;1.25;;;15.40;55.30;;;;;;4991909;28;20113;-59
2021/04/23 06:31:13;;;;;;;5.43;1.63;;;15.30;55.10;;;;;;4992581;28;20540;-59
2021/04/23 06:33:42;;;;;;;4.95;1.42;;;15.40;55.10;;;;;;4993970;28;20488;-59
2021/04/23 06:36:08;;;;;;;5.40;1.80;;;15.40;55.70;;;;;;4976261;28;20064;-60
2021/04/23 06:38:35;;;;;;;5.55;1.30;;;15.40;54.90;;;;;;4975884;28;20029;-60
2021/04/23 06:41:01;;;;;;;6.55;1.50;;;15.40;54.80;;;;;;4976123;28;20029;-60
2021/04/23 06:43:27;;;;;;;9.48;1.70;;;15.60;78.30;;;;;;4993619;28;20393;-60
2021/04/23 06:45:54;;;;;;;4.28;1.40;;;15.10;54.50;;;;;;4993755;28;20026;-60
2021/04/23 06:48:20;;;;;;;6.28;1.55;;;15.50;54.50;;;;;;4993278;28;20571;-60
2021/04/23 06:50:47;;;;;;;3.85;1.27;;;15.50;54.30;;;;;;4993619;28;20066;-60
2021/04/23 06:53:12;;;;;;;3.22;1.42;;;15.50;54.10;;;;;;4993498;28;20068;-58
2021/04/23 06:55:39;;;;;;;6.25;1.20;;;16.00;54.20;;;;;;4993464;28;20109;-59
2021/04/23 06:58:05;;;;;;;4.00;1.13;;;15.60;53.90;;;;;;4992717;28;20026;-59
2021/04/23 07:00:34;;;;;;;2.88;1.15;;;15.60;53.90;;;;;;4993358;28;20034;-57
2021/04/23 07:03:01;;;;;;;3.75;1.30;;;15.70;53.90;;;;;;4993069;28;20046;-57
2021/04/23 07:05:27;;;;;;;4.65;1.30;;;15.70;53.90;;;;;;4993291;28;20029;-58
2021/04/23 07:07:53;;;;;;;2.42;1.02;;;15.70;54.00;;;;;;4993310;28;20492;-59
2021/04/23 07:10:22;;;;;;;6.10;1.52;;;15.70;53.90;;;;;;4975748;28;20106;-58
2021/04/23 07:12:48;;;;;;;4.37;1.20;;;15.80;53.80;;;;;;4993118;28;20035;-58
2021/04/23 07:15:19;;;;;;;4.20;1.05;;;15.80;53.70;;;;;;4993020;28;20274;-58
2021/04/23 07:17:45;;;;;;;2.50;0.80;;;15.80;53.40;;;;;;4993155;28;20088;-57
2021/04/23 07:20:12;;;;;;;3.40;1.20;;;15.90;77.80;;;;;;4993162;28;20029;-59
2021/04/23 07:22:38;;;;;;;3.05;1.08;;;15.90;53.40;;;;;;4975384;28;20424;-59
2021/04/23 07:25:04;;;;;;;4.63;1.25;;;15.90;53.40;;;;;;4992815;28;20026;-59
2021/04/23 07:27:36;;;;;;;1.65;0.95;;;15.90;53.40;;;;;;4992741;28;20036;-58
2021/04/23 07:30:07;;;;;;;2.95;0.90;;;15.90;53.40;;;;;;4992906;28;20045;-58
2021/04/23 07:32:33;;;;;;;3.38;0.85;;;16.00;53.50;;;;;;4992786;28;20417;-57
2021/04/23 07:34:58;;;;;;;4.57;1.27;;;16.00;53.40;;;;;;4975184;28;20045;-58
2021/04/23 07:37:25;;;;;;;2.92;1.17;;;16.00;53.20;;;;;;4993090;28;20034;-58
2021/04/23 07:39:51;;;;;;;2.55;1.30;;;16.00;53.30;;;;;;4992511;28;20500;-58
2021/04/23 07:42:16;;;;;;;4.50;1.40;;;16.10;53.20;;;;;;4992443;28;20038;-57
2021/04/23 07:44:42;;;;;;;3.58;1.25;;;16.20;78.10;;;;;;4991905;28;20033;-59
2021/04/23 07:47:09;;;;;;;1.63;0.82;;;16.10;53.20;;;;;;4992971;28;20026;-58
2021/04/23 07:49:35;;;;;;;4.82;1.10;;;16.10;53.20;;;;;;4992830;28;20022;-57
2021/04/23 07:52:01;;;;;;;2.85;0.90;;;16.10;53.30;;;;;;4992894;28;20373;-57
2021/04/23 07:54:27;;;;;;;2.42;0.82;;;16.20;53.20;;;;;;4992303;28;20026;-58
2021/04/23 07:56:53;;;;;;;3.97;1.25;;;16.20;53.30;;;;;;4975009;28;20362;-58
2021/04/23 07:59:19;;;;;;;3.15;0.88;;;16.10;53.20;;;;;;4992791;28;20026;-57
2021/04/23 08:01:44;;;;;;;3.15;1.15;;;16.00;53.20;;;;;;4992157;28;20576;-57
2021/04/23 08:04:10;;;;;;;2.92;1.10;;;16.20;53.30;;;;;;4992436;28;20113;-57
2021/04/23 08:06:36;;;;;;;2.47;0.90;;;16.20;53.20;;;;;;4992368;28;20018;-56
2021/04/23 08:09:03;;;;;;;3.15;0.88;;;16.30;53.30;;;;;;4992483;28;20417;-58
2021/04/23 08:11:28;;;;;;;3.33;1.02;;;16.30;53.20;;;;;;4992433;28;20026;-57
2021/04/23 08:13:54;;;;;;;4.10;1.42;;;16.30;53.20;;;;;;4992164;28;20023;-58
2021/04/23 08:16:20;;;;;;;3.15;1.08;;;16.30;53.20;;;;;;4975134;28;20033;-58
2021/04/23 08:18:52;;;;;;;6.03;1.52;;;16.30;52.90;;;;;;4975180;28;20177;-56
2021/04/23 08:21:18;;;;;;;2.53;0.90;;;16.40;52.80;;;;;;4992284;28;20435;-57
2021/04/23 08:23:46;;;;;;;2.03;0.88;;;16.40;52.80;;;;;;4992446;28;20037;-57
2021/04/23 08:26:12;;;;;;;1.73;0.85;;;16.40;52.80;;;;;;4992186;28;20033;-57
2021/04/23 08:28:37;;;;;;;2.30;0.90;;;16.50;52.80;;;;;;4974879;28;20122;-60
2021/04/23 08:31:03;;;;;;;2.30;0.75;;;16.50;52.90;;;;;;4992354;28;20465;-58
2021/04/23 08:33:28;;;;;;;1.77;0.75;;;16.60;52.70;;;;;;4992149;28;20362;-58
2021/04/23 08:35:54;;;;;;;4.95;1.38;;;16.60;52.40;;;;;;4974585;28;20073;-57
2021/04/23 08:38:23;;;;;;;5.25;1.40;;;16.60;52.40;;;;;;4992383;28;20041;-57
2021/04/23 08:40:49;;;;;;;2.65;0.80;;;16.70;52.60;;;;;;4992331;28;20026;-58
2021/04/23 08:43:15;;;;;;;2.72;0.65;;;16.70;52.50;;;;;;4992040;28;20074;-58
2021/04/23 08:45:41;;;;;;;3.35;1.10;;;16.70;52.30;;;;;;4991983;28;20054;-58
2021/04/23 08:48:07;;;;;;;5.55;1.20;;;16.80;52.30;;;;;;4992413;28;20461;-58
2021/04/23 08:50:34;;;;;;;2.78;1.15;;;16.80;51.90;;;;;;4991712;28;20030;-57
2021/04/23 08:53:00;;;;;;;4.85;0.90;;;16.80;74.90;;;;;;4993244;28;20061;-57
2021/04/23 08:55:26;;;;;;;3.35;1.10;;;16.90;51.90;;;;;;4977955;28;20030;-57
2021/04/23 08:57:52;;;;;;;3.08;0.95;;;16.90;51.90;;;;;;4995376;28;20072;-57
2021/04/23 09:00:19;;;;;;;2.50;0.98;;;16.70;51.70;;;;;;4995475;28;20030;-58
2021/04/23 09:02:44;;;;;;;3.00;1.05;;;17.00;51.70;;;;;;4977689;28;20084;-57
2021/04/23 09:05:12;;;;;;;2.10;1.08;;;17.00;51.80;;;;;;4995446;28;20485;-58
2021/04/23 09:07:37;;;;;;;1.83;0.82;;;17.00;51.60;;;;;;4995290;28;20078;-56
2021/04/23 09:10:15;;;;;;;3.17;0.75;;;17.40;51.60;;;;;;4977846;28;20054;-58
2021/04/23 09:12:41;;;;;;;2.85;1.10;;;17.10;51.30;;;;;;4995548;28;20073;-57
2021/04/23 09:15:26;;;;;;;2.97;0.85;;;17.20;51.20;;;;;;4995325;28;20038;-56
2021/04/23 09:18:09;;;;;;;2.65;1.10;;;17.40;51.30;;;;;;4994949;28;20105;-57
2021/04/23 09:20:37;;;;;;;4.95;1.08;;;17.50;51.10;;;;;;4995100;28;20038;-58
2021/04/23 09:23:28;;;;;;;2.75;0.88;;;17.60;51.50;;;;;;4995447;28;20122;-57
2021/04/23 09:25:57;;;;;;;1.85;0.90;;;17.70;51.50;;;;;;4990325;28;20069;-58
2021/04/23 09:28:35;;;;;;;1.63;0.80;;;17.80;51.70;;;;;;4995397;28;20026;-59
2021/04/23 09:31:34;;;;;;;3.42;1.35;;;17.90;51.10;;;;;;4995094;28;20023;-56
2021/04/23 09:34:05;;;;;;;2.88;1.05;;;18.00;51.20;;;;;;4994796;28;20034;-58
2021/04/23 09:36:46;;;;;;;3.17;0.95;;;17.90;51.20;;;;;;4977499;28;20034;-56
2021/04/23 09:39:17;;;;;;;2.15;0.95;;;18.10;50.70;;;;;;4977489;28;20021;-55
2021/04/23 09:41:46;;;;;;;3.38;0.90;;;17.90;50.40;;;;;;4994701;28;20453;-57
2021/04/23 09:44:31;;;;;;;1.40;0.75;;;18.30;50.50;;;;;;4994893;28;20478;-57
2021/04/23 09:47:07;;;;;;;5.18;1.38;;;18.40;50.30;;;;;;4994822;28;20130;-55
2021/04/23 09:49:33;;;;;;;1.27;0.88;;;18.60;50.60;;;;;;4977392;28;20030;-58
2021/04/23 09:52:01;;;;;;;3.00;0.80;;;18.50;50.30;;;;;;4994426;28;20481;-57
2021/04/23 09:54:27;;;;;;;4.25;0.75;;;18.60;50.00;;;;;;4995069;28;20108;-55
2021/04/23 09:56:54;;;;;;;5.30;1.02;;;18.40;49.70;;;;;;4994580;28;20062;-59
2021/04/23 09:59:24;;;;;;;1.25;0.75;;;18.80;49.70;;;;;;4994623;28;20493;-57
2021/04/23 10:01:59;;;;;;;2.17;0.65;;;18.90;49.70;;;;;;4993841;28;20046;-57
2021/04/23 10:04:29;;;;;;;2.20;0.70;;;18.70;49.50;;;;;;4976553;28;20112;-56
2021/04/23 10:07:11;;;;;;;3.35;0.60;;;19.00;49.40;;;;;;4994697;28;20493;-57
2021/04/23 10:09:55;;;;;;;1.52;1.00;;;19.00;49.80;;;;;;4994625;28;20073;-57
2021/04/23 10:12:52;;;;;;;4.07;0.70;;;19.10;49.50;;;;;;4994350;28;20038;-57
2021/04/23 10:15:29;;;;;;;4.90;0.88;;;18.90;49.10;;;;;;4960760;28;20042;-55
2021/04/23 10:17:56;;;;;;;1.67;0.68;;;19.20;49.20;;;;;;4994395;28;20030;-58
2021/04/23 10:20:35;;;;;;;1.33;0.68;;;19.40;49.20;;;;;;4994422;28;20405;-56
2021/04/23 10:23:03;;;;;;;3.95;0.98;;;19.30;48.90;;;;;;4994308;28;20429;-54
2021/04/23 10:25:29;;;;;;;1.35;0.70;;;19.10;48.60;;;;;;4994342;28;20023;-60
2021/04/23 10:27:56;;;;;;;3.03;1.10;;;19.40;48.60;;;;;;4994152;28;20237;-60
2021/04/23 10:30:25;;;;;;;1.50;0.65;;;19.10;48.30;;;;;;4993979;28;20029;-60
2021/04/23 10:32:53;;;;;;;3.05;1.00;;;19.40;48.50;;;;;;4993965;28;20042;-57
2021/04/23 10:35:20;;;;;;;1.45;0.50;;;19.40;48.30;;;;;;4994194;28;20420;-61
2021/04/23 10:37:48;;;;;;;2.08;0.80;;;19.50;48.40;;;;;;4993822;28;20023;-61
2021/04/23 10:40:16;;;;;;;2.08;0.93;;;19.50;48.40;;;;;;4994065;28;20021;-61
2021/04/23 10:42:49;;;;;;;2.38;1.00;;;19.40;48.40;;;;;;4993739;28;20121;-60
2021/04/23 10:45:27;;;;;;;1.33;0.60;;;19.40;48.40;;;;;;4993330;28;20098;-61
2021/04/23 10:47:57;;;;;;;1.00;0.57;;;19.30;71.50;;;;;;4993624;28;20093;-60
2021/04/23 10:50:25;;;;;;;1.25;0.65;;;19.30;48.40;;;;;;4993880;28;20022;-60
2021/04/23 10:53:04;;;;;;;1.13;0.70;;;19.30;48.40;;;;;;4993579;28;20053;-60
2021/04/23 10:55:58;;;;;;;2.88;0.85;;;19.50;71.20;;;;;;4976274;28;20552;-58
2021/04/23 10:58:26;;;;;;;2.72;1.00;;;19.40;48.30;;;;;;4993392;28;20036;-58
2021/04/23 11:00:57;;;;;;;2.22;0.77;;;19.40;49.00;;;;;;4993050;28;20028;-58
2021/04/23 11:03:33;;;;;;;2.38;1.15;;;19.50;49.70;;;;;;4993218;28;20099;-58
2021/04/23 11:06:05;;;;;;;2.45;0.70;;;19.50;54.40;;;;;;4993560;28;20346;-56
2021/04/23 11:08:37;;;;;;;2.38;0.90;;;19.50;49.10;;;;;;4993512;28;20417;-59
2021/04/23 11:13:36;;;;;;;3.45;0.95;;;19.50;49.30;;;;;;4993534;28;20373;-59
2021/04/23 11:19:07;;;;;;;2.97;0.80;;;19.70;49.40;;;;;;4993288;28;20430;-58
2021/04/23 11:24:18;;;;;;;1.85;0.70;;;19.80;48.80;;;;;;4992294;28;20042;-58
2021/04/23 11:26:57;;;;;;;2.75;0.95;;;19.90;48.90;;;;;;4974930;28;20090;-58
2021/04/23 11:29:32;;;;;;;3.03;0.70;;;19.90;49.10;;;;;;4992332;28;20053;-56
2021/04/23 11:32:20;;;;;;;2.08;0.98;;;19.80;48.70;;;;;;4974563;28;20026;-56
2021/04/23 11:35:10;;;;;;;3.22;0.63;;;20.00;48.90;;;;;;4992098;28;20401;-57
2021/04/23 11:37:41;;;;;;;5.75;0.95;;;20.30;49.50;;;;;;4991304;28;20072;-58
2021/04/23 11:40:27;;;;;;;1.60;0.70;;;20.00;49.10;;;;;;4975283;28;20539;-58
2021/04/23 11:43:04;;;;;;;1.95;0.80;;;20.10;49.10;;;;;;4992842;28;20152;-56
2021/04/23 11:45:35;;;;;;;2.83;0.68;;;20.10;48.80;;;;;;4992460;28;20079;-57
2021/04/23 11:48:07;;;;;;;1.42;0.85;;;20.10;48.40;;;;;;4993021;28;20109;-55
2021/04/23 11:50:41;;;;;;;0.93;0.60;;;20.90;48.50;;;;;;4992814;28;20023;-55
2021/04/23 11:53:09;;;;;;;2.33;0.77;;;20.20;48.60;;;;;;4975373;28;20049;-55
2021/04/23 11:55:43;;;;;;;1.92;0.80;;;20.20;48.30;;;;;;4992406;28;20014;-57
2021/04/23 11:58:10;;;;;;;5.38;1.00;;;20.20;48.50;;;;;;4993196;28;20377;-56
2021/04/23 12:00:37;;;;;;;1.50;0.60;;;20.00;48.80;;;;;;4992704;28;20026;-53
2021/04/23 12:03:08;;;;;;;2.30;0.93;;;20.30;48.00;;;;;;4992429;28;20058;-58
2021/04/23 12:05:38;;;;;;;1.65;0.70;;;20.10;48.50;;;;;;4974996;28;20110;-56
2021/04/23 12:08:11;;;;;;;2.83;0.73;;;20.30;48.70;;;;;;4993049;28;20101;-58
2021/04/23 12:10:39;;;;;;;1.55;1.00;;;20.40;48.80;;;;;;4992787;28;20054;-57
2021/04/23 12:13:10;;;;;;;2.38;0.60;;;20.40;49.30;;;;;;4992728;28;20023;-56
2021/04/23 12:15:37;;;;;;;3.05;0.60;;;20.30;49.00;;;;;;4992429;28;20148;-55
2021/04/23 12:18:05;;;;;;;2.20;0.70;;;20.50;48.90;;;;;;4992465;28;20014;-56
2021/04/23 12:20:30;;;;;;;1.58;0.60;;;20.40;48.70;;;;;;4992748;28;20448;-57
2021/04/23 12:22:58;;;;;;;1.35;0.47;;;20.30;48.40;;;;;;4992454;28;20117;-57
2021/04/23 12:25:33;;;;;;;2.13;0.88;;;20.40;48.00;;;;;;4992052;28;20019;-56
2021/04/23 12:28:18;;;;;;;1.90;0.70;;;20.50;47.80;;;;;;4995687;28;20038;-58
2021/04/23 12:30:44;;;;;;;2.40;0.73;;;20.50;47.70;;;;;;4996333;28;20029;-57
2021/04/23 12:33:10;;;;;;;2.08;0.80;;;20.60;47.50;;;;;;4996242;28;20027;-56
2021/04/23 12:35:45;;;;;;;3.05;0.93;;;20.50;47.30;;;;;;4978399;28;20034;-58
2021/04/23 12:38:12;;;;;;;1.83;0.73;;;20.50;47.20;;;;;;4996178;28;20026;-58
2021/04/23 12:40:45;;;;;;;1.23;0.80;;;20.80;47.30;;;;;;4996164;28;20557;-56
2021/04/23 12:43:23;;;;;;;1.75;0.68;;;20.50;47.40;;;;;;4996223;28;20042;-56
2021/04/23 12:45:55;;;;;;;1.58;0.65;;;20.70;47.20;;;;;;4995909;28;20073;-59
2021/04/23 12:48:23;;;;;;;2.85;0.82;;;20.30;46.90;;;;;;4995819;28;20026;-55
2021/04/23 12:50:52;;;;;;;1.52;0.65;;;20.60;47.20;;;;;;4978506;28;20033;-57
2021/04/23 12:53:23;;;;;;;2.83;1.02;;;20.20;46.80;;;;;;4996079;28;20057;-56
2021/04/23 12:55:49;;;;;;;1.80;0.70;;;20.50;47.00;;;;;;4995598;28;20018;-57
2021/04/23 12:58:15;;;;;;;3.85;0.85;;;20.70;47.10;;;;;;4995702;28;20058;-59
2021/04/23 13:00:42;;;;;;;2.03;0.80;;;20.40;46.80;;;;;;4978285;28;20026;-57
2021/04/23 13:03:09;;;;;;;1.55;0.63;;;20.50;47.40;;;;;;4995416;28;20111;-56